Date,TemperatureHighF,TemperatureAvgF,TemperatureLowF,DewpointHighF,DewpointAvgF,DewpointLowF,HumidityHigh,HumidityAvg,HumidityLow,PressureMaxIn,PressureMinIn,WindSpeedMaxMPH,WindSpeedAvgMPH,GustSpeedMaxMPH,PrecipitationSumIn
2013-4-1,42,37,27,40,28,12,96,72,47,29.91,29.59,24,9,32,0.05
2013-4-2,32,27,22,19,13,8,85,57,42,30.04,29.90,21,9,29,0.00
2013-4-3,38,30,23,19,14,9,67,52,32,30.34,30.04,19,7,30,0.00
2013-4-4,48,36,24,28,21,15,80,56,27,30.35,29.95,21,6,30,0.00
2013-4-5,41,37,29,34,26,16,94,66,46,30.14,29.90,14,5,20,0.02
2013-4-6,40,35,20,19,13,8,71,41,27,30.40,30.22,10,2,17,0.00
2013-4-7,62,50,33,44,30,14,71,47,31,30.21,29.73,28,9,38,0.01
2013-4-8,55,45,39,38,34,30,91,66,43,30.23,29.90,10,3,20,0.03
2013-4-9,48,43,37,43,40,36,97,89,75,30.14,29.81,15,4,17,0.24
2013-4-10,47,44,38,44,39,30,97,81,71,30.12,30.00,7,1,11,0.07
2013-4-11,38,34,31,30,21,17,75,59,48,30.27,30.07,11,4,15,0.00
2013-4-12,42,34,30,40,29,15,97,86,44,30.23,29.74,13,4,20,0.33
2013-4-13,45,41,38,39,36,33,95,83,70,29.95,29.80,19,8,24,0.00
2013-4-14,44,39,31,36,32,28,96,79,54,30.29,29.95,16,5,18,0.07
2013-4-15,64,48,28,40,34,27,96,63,37,30.37,30.14,14,2,19,0.00
2013-4-16,60,55,44,55,46,39,95,74,48,30.23,29.97,26,9,35,0.19
2013-4-17,53,44,33,38,32,27,95,67,36,30.43,30.23,14,2,19,0.00
2013-4-18,72,54,38,52,40,29,88,62,41,30.39,29.79,24,6,33,0.01
2013-4-19,75,62,42,58,50,34,93,68,47,29.81,29.42,32,12,36,0.15
2013-4-20,44,39,29,35,28,20,90,66,51,30.43,29.75,25,11,40,0.00
2013-4-21,45,34,24,23,18,14,78,53,31,30.74,30.43,12,2,14,0.00
2013-4-22,61,46,26,26,20,14,81,42,16,30.73,30.48,17,3,18,0.00
2013-4-23,65,51,37,39,27,15,66,42,15,30.49,30.10,13,3,15,0.00
2013-4-24,72,57,43,54,43,38,91,61,33,30.10,29.61,25,7,37,0.04
2013-4-25,52,43,37,40,32,25,95,67,35,30.35,29.82,21,6,37,0.05
2013-4-26,52,44,36,41,34,28,95,70,40,30.52,30.35,13,3,16,0.14
2013-4-27,58,45,31,42,35,29,92,70,45,30.53,30.34,10,2,12,0.00
2013-4-28,74,58,38,43,39,34,94,55,24,30.36,30.10,8,1,11,0.00
2013-4-29,62,58,53,47,44,38,69,60,44,30.18,30.12,18,5,20,0.00
2013-4-30,71,61,54,52,49,47,83,67,44,30.31,30.19,10,3,15,0.00